sensor_id;sensor_type;location;lat;lon;timestamp;pressure;altitude;pressure_sealevel;temperature;humidity
82305;BME280;71914;47.382;8.168;2023-10-31T00:01:57;95564.25;;;9.60;86.60
82305;BME280;71914;47.382;8.168;2023-10-31T00:04:23;95565.41;;;9.57;86.81
82305;BME280;71914;47.382;8.168;2023-10-31T00:06:49;95570.66;;;9.57;86.46
82305;BME280;71914;47.382;8.168;2023-10-31T00:09:15;95575.03;;;9.57;86.96
82305;BME280;71914;47.382;8.168;2023-10-31T00:11:41;95577.16;;;9.53;86.64
82305;BME280;71914;47.382;8.168;2023-10-31T00:14:09;95583.03;;;9.55;86.66
82305;BME280;71914;47.382;8.168;2023-10-31T00:16:34;95575.72;;;9.59;86.25
82305;BME280;71914;47.382;8.168;2023-10-31T00:19:00;95581.41;;;9.54;86.85
82305;BME280;71914;47.382;8.168;2023-10-31T00:21:26;95581.59;;;9.61;87.91
82305;BME280;71914;47.382;8.168;2023-10-31T00:23:51;95578.63;;;9.56;86.35
82305;BME280;71914;47.382;8.168;2023-10-31T00:26:17;95575.38;;;9.54;86.40
82305;BME280;71914;47.382;8.168;2023-10-31T00:28:42;95566.38;;;9.56;87.52
82305;BME280;71914;47.382;8.168;2023-10-31T00:31:09;95567.19;;;9.57;87.70
82305;BME280;71914;47.382;8.168;2023-10-31T00:33:37;95569.00;;;9.56;86.96
82305;BME280;71914;47.382;8.168;2023-10-31T00:36:03;95564.56;;;9.57;86.23
82305;BME280;71914;47.382;8.168;2023-10-31T00:38:28;95581.09;;;9.57;87.17
82305;BME280;71914;47.382;8.168;2023-10-31T00:40:54;95580.44;;;9.63;87.42
82305;BME280;71914;47.382;8.168;2023-10-31T00:43:19;95580.16;;;9.67;86.08
82305;BME280;71914;47.382;8.168;2023-10-31T00:45:45;95591.06;;;9.62;86.48
82305;BME280;71914;47.382;8.168;2023-10-31T00:48:12;95594.31;;;9.56;87.01
82305;BME280;71914;47.382;8.168;2023-10-31T00:50:37;95596.78;;;9.57;86.29
82305;BME280;71914;47.382;8.168;2023-10-31T00:53:03;95595.44;;;9.45;86.52
82305;BME280;71914;47.382;8.168;2023-10-31T00:55:28;95583.69;;;9.49;87.01
82305;BME280;71914;47.382;8.168;2023-10-31T00:57:54;95591.06;;;9.54;87.86
82305;BME280;71914;47.382;8.168;2023-10-31T01:00:20;95602.16;;;9.56;86.92
82305;BME280;71914;47.382;8.168;2023-10-31T01:02:46;95605.91;;;9.53;85.35
82305;BME280;71914;47.382;8.168;2023-10-31T01:05:12;95612.44;;;9.49;85.79
82305;BME280;71914;47.382;8.168;2023-10-31T01:07:38;95619.81;;;9.54;87.60
82305;BME280;71914;47.382;8.168;2023-10-31T01:10:04;95623.88;;;9.48;87.10
82305;BME280;71914;47.382;8.168;2023-10-31T01:12:30;95629.31;;;9.55;86.93
82305;BME280;71914;47.382;8.168;2023-10-31T01:14:56;95628.28;;;9.47;85.20
82305;BME280;71914;47.382;8.168;2023-10-31T01:17:21;95630.91;;;9.47;85.11
82305;BME280;71914;47.382;8.168;2023-10-31T01:19:47;95640.22;;;9.42;86.59
82305;BME280;71914;47.382;8.168;2023-10-31T01:22:14;95648.22;;;9.40;86.74
82305;BME280;71914;47.382;8.168;2023-10-31T01:24:39;95651.47;;;9.42;85.39
82305;BME280;71914;47.382;8.168;2023-10-31T01:27:05;95645.78;;;9.47;86.00
82305;BME280;71914;47.382;8.168;2023-10-31T01:29:31;95650.00;;;9.48;86.98
82305;BME280;71914;47.382;8.168;2023-10-31T01:31:56;95661.00;;;9.52;87.56
82305;BME280;71914;47.382;8.168;2023-10-31T01:34:22;95659.06;;;9.54;85.82
82305;BME280;71914;47.382;8.168;2023-10-31T01:36:47;95681.47;;;9.56;85.76
82305;BME280;71914;47.382;8.168;2023-10-31T01:39:14;95673.66;;;9.73;87.24
82305;BME280;71914;47.382;8.168;2023-10-31T01:41:41;95670.84;;;9.66;84.94
82305;BME280;71914;47.382;8.168;2023-10-31T01:44:06;95670.69;;;9.68;85.99
82305;BME280;71914;47.382;8.168;2023-10-31T01:46:32;95670.84;;;9.66;85.00
82305;BME280;71914;47.382;8.168;2023-10-31T01:48:57;95669.34;;;9.55;84.74
82305;BME280;71914;47.382;8.168;2023-10-31T01:51:23;95676.50;;;9.45;84.64
82305;BME280;71914;47.382;8.168;2023-10-31T01:53:48;95669.41;;;9.37;84.48
82305;BME280;71914;47.382;8.168;2023-10-31T01:56:15;95665.16;;;9.36;84.02
82305;BME280;71914;47.382;8.168;2023-10-31T01:58:41;95676.63;;;9.35;84.04
82305;BME280;71914;47.382;8.168;2023-10-31T02:01:08;95685.22;;;9.27;84.62
82305;BME280;71914;47.382;8.168;2023-10-31T02:03:34;95683.09;;;9.31;85.28
82305;BME280;71914;47.382;8.168;2023-10-31T02:05:59;95683.09;;;9.31;84.66
82305;BME280;71914;47.382;8.168;2023-10-31T02:08:25;95677.59;;;9.34;85.41
82305;BME280;71914;47.382;8.168;2023-10-31T02:10:51;95687.38;;;9.32;83.49
82305;BME280;71914;47.382;8.168;2023-10-31T02:13:18;95696.84;;;9.33;84.64
82305;BME280;71914;47.382;8.168;2023-10-31T02:15:44;95696.84;;;9.33;84.37
82305;BME280;71914;47.382;8.168;2023-10-31T02:18:10;95704.38;;;9.36;84.73
82305;BME280;71914;47.382;8.168;2023-10-31T02:20:36;95710.59;;;9.35;83.67
82305;BME280;71914;47.382;8.168;2023-10-31T02:23:03;95710.25;;;9.30;83.36
82305;BME280;71914;47.382;8.168;2023-10-31T02:25:29;95722.69;;;9.36;85.33
82305;BME280;71914;47.382;8.168;2023-10-31T02:27:55;95731.66;;;9.34;83.17
82305;BME280;71914;47.382;8.168;2023-10-31T02:30:21;95738.88;;;9.40;84.75
82305;BME280;71914;47.382;8.168;2023-10-31T02:32:46;95735.47;;;9.39;83.56
82305;BME280;71914;47.382;8.168;2023-10-31T02:35:13;95732.69;;;9.41;84.32
82305;BME280;71914;47.382;8.168;2023-10-31T02:37:39;95732.16;;;9.37;82.33
82305;BME280;71914;47.382;8.168;2023-10-31T02:40:08;95742.34;;;9.40;84.26
82305;BME280;71914;47.382;8.168;2023-10-31T02:42:33;95743.75;;;9.35;83.96
82305;BME280;71914;47.382;8.168;2023-10-31T02:44:59;95736.53;;;9.28;84.04
82305;BME280;71914;47.382;8.168;2023-10-31T02:47:24;95731.44;;;9.27;82.40
82305;BME280;71914;47.382;8.168;2023-10-31T02:49:50;95741.41;;;9.23;82.59
82305;BME280;71914;47.382;8.168;2023-10-31T02:52:15;95745.56;;;9.34;84.80
82305;BME280;71914;47.382;8.168;2023-10-31T02:54:41;95739.50;;;9.34;84.38
82305;BME280;71914;47.382;8.168;2023-10-31T02:57:08;95742.63;;;9.37;83.33
82305;BME280;71914;47.382;8.168;2023-10-31T02:59:34;95751.16;;;9.39;81.82
82305;BME280;71914;47.382;8.168;2023-10-31T03:02:00;95742.63;;;9.37;81.93
82305;BME280;71914;47.382;8.168;2023-10-31T03:04:25;95753.41;;;9.34;80.94
82305;BME280;71914;47.382;8.168;2023-10-31T03:06:51;95752.84;;;9.22;81.12
82305;BME280;71914;47.382;8.168;2023-10-31T03:09:16;95751.50;;;9.18;83.39
82305;BME280;71914;47.382;8.168;2023-10-31T03:11:42;95765.69;;;9.16;82.28
82305;BME280;71914;47.382;8.168;2023-10-31T03:14:09;95759.94;;;9.12;84.04
82305;BME280;71914;47.382;8.168;2023-10-31T03:16:34;95769.97;;;8.99;83.10
82305;BME280;71914;47.382;8.168;2023-10-31T03:19:00;95780.25;;;9.00;82.85
82305;BME280;71914;47.382;8.168;2023-10-31T03:21:25;95772.75;;;8.97;84.23
82305;BME280;71914;47.382;8.168;2023-10-31T03:23:51;95782.94;;;8.90;85.03
82305;BME280;71914;47.382;8.168;2023-10-31T03:26:21;95786.81;;;8.86;83.67
82305;BME280;71914;47.382;8.168;2023-10-31T03:28:47;95783.56;;;8.84;83.05
82305;BME280;71914;47.382;8.168;2023-10-31T03:31:15;95783.41;;;8.86;85.74
82305;BME280;71914;47.382;8.168;2023-10-31T03:33:41;95784.69;;;8.82;85.20
82305;BME280;71914;47.382;8.168;2023-10-31T03:36:07;95786.31;;;8.83;84.49
82305;BME280;71914;47.382;8.168;2023-10-31T03:38:33;95798.50;;;8.92;85.25
82305;BME280;71914;47.382;8.168;2023-10-31T03:40:59;95794.22;;;8.91;84.67
82305;BME280;71914;47.382;8.168;2023-10-31T03:43:24;95795.56;;;8.95;85.42
82305;BME280;71914;47.382;8.168;2023-10-31T03:45:51;95807.56;;;9.06;86.48
82305;BME280;71914;47.382;8.168;2023-10-31T03:48:18;95803.19;;;9.06;85.69
82305;BME280;71914;47.382;8.168;2023-10-31T03:50:44;95798.72;;;8.99;85.48
82305;BME280;71914;47.382;8.168;2023-10-31T03:53:09;95801.53;;;8.87;85.25
82305;BME280;71914;47.382;8.168;2023-10-31T03:55:35;95795.19;;;8.90;86.17
82305;BME280;71914;47.382;8.168;2023-10-31T03:58:00;95806.56;;;8.99;86.72
82305;BME280;71914;47.382;8.168;2023-10-31T04:00:26;95802.06;;;8.91;85.18
82305;BME280;71914;47.382;8.168;2023-10-31T04:02:51;95792.66;;;8.80;84.88
82305;BME280;71914;47.382;8.168;2023-10-31T04:05:18;95804.31;;;8.86;85.89
82305;BME280;71914;47.382;8.168;2023-10-31T04:07:44;95807.88;;;8.85;85.11
82305;BME280;71914;47.382;8.168;2023-10-31T04:10:09;95796.59;;;8.66;84.04
82305;BME280;71914;47.382;8.168;2023-10-31T04:12:35;95797.97;;;8.42;85.36
82305;BME280;71914;47.382;8.168;2023-10-31T04:15:00;95790.53;;;8.20;86.11
82305;BME280;71914;47.382;8.168;2023-10-31T04:17:26;95793.91;;;8.30;88.94
82305;BME280;71914;47.382;8.168;2023-10-31T04:19:52;95797.81;;;8.44;88.59
82305;BME280;71914;47.382;8.168;2023-10-31T04:22:19;95804.94;;;8.52;88.58
82305;BME280;71914;47.382;8.168;2023-10-31T04:24:44;95804.53;;;8.56;88.21
82305;BME280;71914;47.382;8.168;2023-10-31T04:27:09;95805.34;;;8.75;88.43
82305;BME280;71914;47.382;8.168;2023-10-31T04:29:35;95806.91;;;8.86;88.15
82305;BME280;71914;47.382;8.168;2023-10-31T04:32:00;95809.22;;;8.89;86.72
82305;BME280;71914;47.382;8.168;2023-10-31T04:34:26;95810.94;;;8.98;86.39
82305;BME280;71914;47.382;8.168;2023-10-31T04:36:52;95808.94;;;8.92;86.58
82305;BME280;71914;47.382;8.168;2023-10-31T04:39:19;95814.22;;;9.00;86.96
82305;BME280;71914;47.382;8.168;2023-10-31T04:41:44;95814.97;;;8.92;86.16
82305;BME280;71914;47.382;8.168;2023-10-31T04:44:10;95803.84;;;8.90;86.64
82305;BME280;71914;47.382;8.168;2023-10-31T04:46:35;95810.22;;;8.88;86.54
82305;BME280;71914;47.382;8.168;2023-10-31T04:49:01;95808.94;;;8.92;86.42
82305;BME280;71914;47.382;8.168;2023-10-31T04:51:27;95807.13;;;8.92;86.55
82305;BME280;71914;47.382;8.168;2023-10-31T04:53:53;95805.13;;;8.86;85.30
82305;BME280;71914;47.382;8.168;2023-10-31T04:56:19;95805.94;;;8.87;86.51
82305;BME280;71914;47.382;8.168;2023-10-31T04:58:45;95812.38;;;8.92;84.21
82305;BME280;71914;47.382;8.168;2023-10-31T05:01:12;95813.69;;;8.78;84.25
82305;BME280;71914;47.382;8.168;2023-10-31T05:03:37;95811.50;;;8.56;83.82
82305;BME280;71914;47.382;8.168;2023-10-31T05:06:03;95818.63;;;8.36;85.13
82305;BME280;71914;47.382;8.168;2023-10-31T05:08:29;95815.66;;;8.21;85.94
82305;BME280;71914;47.382;8.168;2023-10-31T05:10:54;95817.91;;;8.16;86.66
82305;BME280;71914;47.382;8.168;2023-10-31T05:13:21;95813.34;;;8.18;85.83
82305;BME280;71914;47.382;8.168;2023-10-31T05:15:46;95810.31;;;8.22;85.42
82305;BME280;71914;47.382;8.168;2023-10-31T05:18:12;95809.09;;;8.44;88.43
82305;BME280;71914;47.382;8.168;2023-10-31T05:20:37;95811.84;;;8.71;89.73
82305;BME280;71914;47.382;8.168;2023-10-31T05:23:03;95817.94;;;8.79;85.23
82305;BME280;71914;47.382;8.168;2023-10-31T05:25:28;95807.66;;;8.96;87.36
82305;BME280;71914;47.382;8.168;2023-10-31T05:27:54;95810.34;;;9.04;85.48
82305;BME280;71914;47.382;8.168;2023-10-31T05:30:21;95817.53;;;9.02;82.94
82305;BME280;71914;47.382;8.168;2023-10-31T05:32:46;95819.63;;;9.17;85.49
82305;BME280;71914;47.382;8.168;2023-10-31T05:35:12;95820.78;;;9.04;85.17
82305;BME280;71914;47.382;8.168;2023-10-31T05:37:38;95826.56;;;9.08;86.02
82305;BME280;71914;47.382;8.168;2023-10-31T05:40:04;95829.59;;;9.03;85.23
82305;BME280;71914;47.382;8.168;2023-10-31T05:42:30;95829.59;;;9.03;85.11
82305;BME280;71914;47.382;8.168;2023-10-31T05:44:55;95822.44;;;9.05;84.76
82305;BME280;71914;47.382;8.168;2023-10-31T05:47:23;95828.84;;;9.11;86.19
82305;BME280;71914;47.382;8.168;2023-10-31T05:49:49;95830.34;;;9.13;84.76
82305;BME280;71914;47.382;8.168;2023-10-31T05:52:15;95831.31;;;9.12;84.62
82305;BME280;71914;47.382;8.168;2023-10-31T05:54:40;95838.88;;;9.16;85.29
82305;BME280;71914;47.382;8.168;2023-10-31T05:57:06;95828.09;;;9.19;85.25
82305;BME280;71914;47.382;8.168;2023-10-31T05:59:31;95839.53;;;9.18;85.45
82305;BME280;71914;47.382;8.168;2023-10-31T06:01:57;95838.28;;;9.04;83.02
82305;BME280;71914;47.382;8.168;2023-10-31T06:04:25;95843.03;;;9.08;86.79
82305;BME280;71914;47.382;8.168;2023-10-31T06:06:50;95852.44;;;9.19;87.48
82305;BME280;71914;47.382;8.168;2023-10-31T06:09:16;95847.47;;;9.26;87.04
82305;BME280;71914;47.382;8.168;2023-10-31T06:11:41;95848.88;;;9.20;86.93
82305;BME280;71914;47.382;8.168;2023-10-31T06:14:08;95853.66;;;9.25;86.71
82305;BME280;71914;47.382;8.168;2023-10-31T06:16:39;95861.06;;;9.11;86.59
82305;BME280;71914;47.382;8.168;2023-10-31T06:19:05;95857.16;;;9.16;87.82
82305;BME280;71914;47.382;8.168;2023-10-31T06:21:32;95862.47;;;9.24;86.99
82305;BME280;71914;47.382;8.168;2023-10-31T06:23:57;95865.44;;;9.29;87.84
82305;BME280;71914;47.382;8.168;2023-10-31T06:26:23;95868.28;;;9.36;88.59
82305;BME280;71914;47.382;8.168;2023-10-31T06:28:48;95871.44;;;9.39;88.84
82305;BME280;71914;47.382;8.168;2023-10-31T06:31:14;95875.53;;;9.42;88.97
82305;BME280;71914;47.382;8.168;2023-10-31T06:33:39;95878.72;;;9.54;89.43
82305;BME280;71914;47.382;8.168;2023-10-31T06:36:06;95884.13;;;9.52;88.98
82305;BME280;71914;47.382;8.168;2023-10-31T06:38:33;95888.97;;;9.47;87.88
82305;BME280;71914;47.382;8.168;2023-10-31T06:40:59;95890.91;;;9.27;86.74
82305;BME280;71914;47.382;8.168;2023-10-31T06:43:24;95898.16;;;9.15;86.29
82305;BME280;71914;47.382;8.168;2023-10-31T06:45:51;95893.81;;;9.06;87.92
82305;BME280;71914;47.382;8.168;2023-10-31T06:48:16;95896.44;;;9.06;88.03
82305;BME280;71914;47.382;8.168;2023-10-31T06:50:42;95902.25;;;9.00;86.93
82305;BME280;71914;47.382;8.168;2023-10-31T06:53:08;95900.09;;;8.95;87.56
82305;BME280;71914;47.382;8.168;2023-10-31T06:55:35;95902.78;;;8.85;86.70
82305;BME280;71914;47.382;8.168;2023-10-31T06:58:00;95900.09;;;8.67;85.55
82305;BME280;71914;47.382;8.168;2023-10-31T07:00:27;95906.59;;;8.63;86.64
82305;BME280;71914;47.382;8.168;2023-10-31T07:02:52;95909.78;;;8.57;85.75
82305;BME280;71914;47.382;8.168;2023-10-31T07:05:18;95911.53;;;8.66;85.49
82305;BME280;71914;47.382;8.168;2023-10-31T07:07:45;95907.97;;;8.57;85.55
82305;BME280;71914;47.382;8.168;2023-10-31T07:10:11;95920.41;;;8.45;86.61
82305;BME280;71914;47.382;8.168;2023-10-31T07:12:38;95919.97;;;8.40;86.31
82305;BME280;71914;47.382;8.168;2023-10-31T07:15:04;95920.53;;;8.44;88.21
82305;BME280;71914;47.382;8.168;2023-10-31T07:17:30;95917.53;;;8.49;86.65
82305;BME280;71914;47.382;8.168;2023-10-31T07:19:56;95925.34;;;8.49;86.30
82305;BME280;71914;47.382;8.168;2023-10-31T07:22:21;95921.75;;;8.50;85.23
82305;BME280;71914;47.382;8.168;2023-10-31T07:24:49;95918.19;;;8.51;86.24
82305;BME280;71914;47.382;8.168;2023-10-31T07:27:15;95924.63;;;8.56;86.64
82305;BME280;71914;47.382;8.168;2023-10-31T07:29:42;95928.31;;;8.63;87.99
82305;BME280;71914;47.382;8.168;2023-10-31T07:32:08;95933.13;;;8.58;85.68
82305;BME280;71914;47.382;8.168;2023-10-31T07:34:33;95929.41;;;8.61;86.84
82305;BME280;71914;47.382;8.168;2023-10-31T07:36:59;95925.00;;;8.61;84.56
82305;BME280;71914;47.382;8.168;2023-10-31T07:39:25;95932.72;;;8.63;87.73
82305;BME280;71914;47.382;8.168;2023-10-31T07:41:50;95934.22;;;8.66;85.35
82305;BME280;71914;47.382;8.168;2023-10-31T07:44:16;95933.53;;;8.63;84.70
82305;BME280;71914;47.382;8.168;2023-10-31T07:46:43;95928.00;;;8.67;86.24
82305;BME280;71914;47.382;8.168;2023-10-31T07:49:09;95937.34;;;8.69;86.18
82305;BME280;71914;47.382;8.168;2023-10-31T07:51:34;95943.41;;;8.70;85.75
82305;BME280;71914;47.382;8.168;2023-10-31T07:54:00;95940.81;;;8.60;86.37
82305;BME280;71914;47.382;8.168;2023-10-31T07:56:25;95946.59;;;8.63;86.61
82305;BME280;71914;47.382;8.168;2023-10-31T07:58:51;95940.97;;;8.58;85.32
82305;BME280;71914;47.382;8.168;2023-10-31T08:01:17;95948.94;;;8.57;85.35
82305;BME280;71914;47.382;8.168;2023-10-31T08:03:45;95951.72;;;8.55;85.69
82305;BME280;71914;47.382;8.168;2023-10-31T08:06:10;95962.50;;;8.70;87.22
82305;BME280;71914;47.382;8.168;2023-10-31T08:08:36;95961.06;;;8.86;85.53
82305;BME280;71914;47.382;8.168;2023-10-31T08:11:02;95965.59;;;8.84;84.07
82305;BME280;71914;47.382;8.168;2023-10-31T08:13:29;95956.59;;;8.68;85.38
82305;BME280;71914;47.382;8.168;2023-10-31T08:15:54;95967.31;;;8.75;85.85
82305;BME280;71914;47.382;8.168;2023-10-31T08:18:21;95962.66;;;8.69;85.31
82305;BME280;71914;47.382;8.168;2023-10-31T08:20:48;95967.00;;;8.78;87.23
82305;BME280;71914;47.382;8.168;2023-10-31T08:23:16;95964.53;;;8.76;85.94
82305;BME280;71914;47.382;8.168;2023-10-31T08:25:41;95967.31;;;8.75;85.39
82305;BME280;71914;47.382;8.168;2023-10-31T08:28:07;95963.84;;;8.74;86.86
82305;BME280;71914;47.382;8.168;2023-10-31T08:30:32;95976.63;;;8.77;85.55
82305;BME280;71914;47.382;8.168;2023-10-31T08:32:59;95967.53;;;8.82;85.91
82305;BME280;71914;47.382;8.168;2023-10-31T08:35:24;95977.69;;;8.85;85.56
82305;BME280;71914;47.382;8.168;2023-10-31T08:37:51;95969.38;;;8.99;86.48
82305;BME280;71914;47.382;8.168;2023-10-31T08:40:17;95978.56;;;9.03;85.36
82305;BME280;71914;47.382;8.168;2023-10-31T08:42:43;95981.88;;;8.95;85.74
82305;BME280;71914;47.382;8.168;2023-10-31T08:45:09;95990.84;;;8.93;86.05
82305;BME280;71914;47.382;8.168;2023-10-31T08:47:35;95979.19;;;8.87;85.67
82305;BME280;71914;47.382;8.168;2023-10-31T08:50:00;95986.72;;;8.90;85.33
82305;BME280;71914;47.382;8.168;2023-10-31T08:52:26;95980.13;;;8.96;86.72
82305;BME280;71914;47.382;8.168;2023-10-31T08:54:53;95982.28;;;9.01;84.35
82305;BME280;71914;47.382;8.168;2023-10-31T08:57:18;95982.00;;;9.04;83.29
82305;BME280;71914;47.382;8.168;2023-10-31T08:59:44;95974.91;;;8.96;83.44
82305;BME280;71914;47.382;8.168;2023-10-31T09:02:09;95984.00;;;8.92;83.43
82305;BME280;71914;47.382;8.168;2023-10-31T09:04:35;95976.97;;;8.92;84.42
82305;BME280;71914;47.382;8.168;2023-10-31T09:07:01;95988.19;;;9.03;82.80
82305;BME280;71914;47.382;8.168;2023-10-31T09:09:26;95987.63;;;9.09;82.09
82305;BME280;71914;47.382;8.168;2023-10-31T09:11:53;95978.38;;;9.14;82.29
82305;BME280;71914;47.382;8.168;2023-10-31T09:14:19;95988.50;;;9.18;83.07
82305;BME280;71914;47.382;8.168;2023-10-31T09:16:44;95980.09;;;9.24;82.63
82305;BME280;71914;47.382;8.168;2023-10-31T09:19:10;95978.81;;;9.28;82.79
82305;BME280;71914;47.382;8.168;2023-10-31T09:21:36;95985.56;;;9.30;81.79
82305;BME280;71914;47.382;8.168;2023-10-31T09:24:02;95984.13;;;9.36;82.64
82305;BME280;71914;47.382;8.168;2023-10-31T09:26:27;95989.69;;;9.51;81.56
82305;BME280;71914;47.382;8.168;2023-10-31T09:28:55;95982.72;;;9.60;83.05
82305;BME280;71914;47.382;8.168;2023-10-31T09:31:20;95981.84;;;9.69;81.21
82305;BME280;71914;47.382;8.168;2023-10-31T09:33:46;95981.25;;;9.75;83.18
82305;BME280;71914;47.382;8.168;2023-10-31T09:36:11;95988.88;;;9.87;81.87
82305;BME280;71914;47.382;8.168;2023-10-31T09:38:38;95981.16;;;9.85;81.77
82305;BME280;71914;47.382;8.168;2023-10-31T09:41:05;95987.03;;;10.05;81.58
82305;BME280;71914;47.382;8.168;2023-10-31T09:43:31;95990.84;;;10.11;79.76
82305;BME280;71914;47.382;8.168;2023-10-31T09:45:58;95999.75;;;10.18;79.70
82305;BME280;71914;47.382;8.168;2023-10-31T09:48:24;95997.66;;;10.22;78.91
82305;BME280;71914;47.382;8.168;2023-10-31T09:50:49;95992.03;;;10.17;78.71
82305;BME280;71914;47.382;8.168;2023-10-31T09:53:15;95993.91;;;10.24;81.52
82305;BME280;71914;47.382;8.168;2023-10-31T09:55:44;95992.78;;;10.27;78.19
82305;BME280;71914;47.382;8.168;2023-10-31T09:58:11;95996.00;;;10.39;79.10
82305;BME280;71914;47.382;8.168;2023-10-31T10:00:36;95991.31;;;10.51;79.11
82305;BME280;71914;47.382;8.168;2023-10-31T10:03:04;95986.47;;;10.64;78.78
82305;BME280;71914;47.382;8.168;2023-10-31T10:05:30;95983.09;;;10.72;78.02
82305;BME280;71914;47.382;8.168;2023-10-31T10:07:57;95995.69;;;10.76;77.59
82305;BME280;71914;47.382;8.168;2023-10-31T10:10:23;95989.56;;;10.94;79.05
82305;BME280;71914;47.382;8.168;2023-10-31T10:12:48;95987.09;;;10.92;76.68
82305;BME280;71914;47.382;8.168;2023-10-31T10:15:16;95980.72;;;10.95;80.22
82305;BME280;71914;47.382;8.168;2023-10-31T10:17:48;95975.97;;;10.99;75.62
82305;BME280;71914;47.382;8.168;2023-10-31T10:20:15;95990.91;;;10.98;78.01
82305;BME280;71914;47.382;8.168;2023-10-31T10:22:42;95993.97;;;10.93;76.54
82305;BME280;71914;47.382;8.168;2023-10-31T10:25:08;95988.91;;;10.92;76.96
82305;BME280;71914;47.382;8.168;2023-10-31T10:27:34;95987.88;;;10.85;78.13
82305;BME280;71914;47.382;8.168;2023-10-31T10:30:01;95997.09;;;10.89;77.76
82305;BME280;71914;47.382;8.168;2023-10-31T10:32:27;96000.69;;;10.88;77.05
82305;BME280;71914;47.382;8.168;2023-10-31T10:34:52;96001.97;;;10.84;75.42
82305;BME280;71914;47.382;8.168;2023-10-31T10:37:19;95985.53;;;10.73;74.99
82305;BME280;71914;47.382;8.168;2023-10-31T10:39:47;95990.47;;;10.76;78.24
82305;BME280;71914;47.382;8.168;2023-10-31T10:42:17;95994.22;;;10.74;76.26
82305;BME280;71914;47.382;8.168;2023-10-31T10:44:44;95990.94;;;10.72;76.82
82305;BME280;71914;47.382;8.168;2023-10-31T10:47:12;95989.81;;;10.74;76.50
82305;BME280;71914;47.382;8.168;2023-10-31T10:49:41;95990.75;;;10.65;77.30
82305;BME280;71914;47.382;8.168;2023-10-31T10:52:16;95990.88;;;10.63;76.36
82305;BME280;71914;47.382;8.168;2023-10-31T10:54:45;95981.41;;;10.62;76.92
82305;BME280;71914;47.382;8.168;2023-10-31T10:57:21;95992.53;;;10.65;76.50
82305;BME280;71914;47.382;8.168;2023-10-31T10:59:50;95989.66;;;10.76;78.49
82305;BME280;71914;47.382;8.168;2023-10-31T11:02:18;95989.50;;;10.86;77.43
82305;BME280;71914;47.382;8.168;2023-10-31T11:04:44;95972.38;;;10.91;75.38
82305;BME280;71914;47.382;8.168;2023-10-31T11:07:10;95984.78;;;10.89;74.66
82305;BME280;71914;47.382;8.168;2023-10-31T11:09:35;95986.72;;;10.87;75.03
82305;BME280;71914;47.382;8.168;2023-10-31T11:12:04;95992.50;;;10.91;76.32
82305;BME280;71914;47.382;8.168;2023-10-31T11:14:30;95986.09;;;10.85;74.30
82305;BME280;71914;47.382;8.168;2023-10-31T11:17:00;95984.59;;;10.83;75.07
82305;BME280;71914;47.382;8.168;2023-10-31T11:19:28;95998.69;;;10.82;74.03
82305;BME280;71914;47.382;8.168;2023-10-31T11:21:54;95989.84;;;10.83;73.48
82305;BME280;71914;47.382;8.168;2023-10-31T11:24:21;95986.06;;;10.77;73.55
82305;BME280;71914;47.382;8.168;2023-10-31T11:26:50;96001.25;;;10.73;72.30
82305;BME280;71914;47.382;8.168;2023-10-31T11:29:18;95988.97;;;10.74;72.81
82305;BME280;71914;47.382;8.168;2023-10-31T11:31:43;95990.09;;;10.71;73.75
82305;BME280;71914;47.382;8.168;2023-10-31T11:34:09;96002.22;;;10.72;73.67
82305;BME280;71914;47.382;8.168;2023-10-31T11:36:35;96008.16;;;10.74;74.88
82305;BME280;71914;47.382;8.168;2023-10-31T11:39:10;96009.28;;;10.72;75.88
82305;BME280;71914;47.382;8.168;2023-10-31T11:41:38;96006.09;;;10.60;75.37
82305;BME280;71914;47.382;8.168;2023-10-31T11:44:04;96002.97;;;10.56;75.48
82305;BME280;71914;47.382;8.168;2023-10-31T11:46:31;96009.72;;;10.67;77.81
82305;BME280;71914;47.382;8.168;2023-10-31T11:48:57;96013.75;;;10.79;77.20
82305;BME280;71914;47.382;8.168;2023-10-31T11:51:25;96012.38;;;10.75;73.83
82305;BME280;71914;47.382;8.168;2023-10-31T11:53:51;96017.53;;;10.85;74.09
82305;BME280;71914;47.382;8.168;2023-10-31T11:56:18;96019.31;;;10.85;74.90
82305;BME280;71914;47.382;8.168;2023-10-31T11:58:43;96008.38;;;10.89;73.16
82305;BME280;71914;47.382;8.168;2023-10-31T12:01:10;96019.19;;;10.86;72.74
82305;BME280;71914;47.382;8.168;2023-10-31T12:03:41;96027.69;;;10.88;73.12
82305;BME280;71914;47.382;8.168;2023-10-31T12:06:07;96030.03;;;11.34;81.00
82305;BME280;71914;47.382;8.168;2023-10-31T12:08:35;96027.88;;;11.29;71.55
82305;BME280;71914;47.382;8.168;2023-10-31T12:11:05;96026.00;;;11.13;71.80
82305;BME280;71914;47.382;8.168;2023-10-31T12:13:31;96027.97;;;11.11;71.44
82305;BME280;71914;47.382;8.168;2023-10-31T12:15:57;96016.09;;;10.99;70.30
82305;BME280;71914;47.382;8.168;2023-10-31T12:18:22;96034.63;;;10.98;70.32
82305;BME280;71914;47.382;8.168;2023-10-31T12:20:50;96029.88;;;10.93;70.35
82305;BME280;71914;47.382;8.168;2023-10-31T12:23:17;96039.31;;;10.86;70.58
82305;BME280;71914;47.382;8.168;2023-10-31T12:25:45;96030.31;;;10.88;71.90
82305;BME280;71914;47.382;8.168;2023-10-31T12:28:16;96029.69;;;10.94;70.42
82305;BME280;71914;47.382;8.168;2023-10-31T12:30:44;96038.69;;;10.92;70.91
82305;BME280;71914;47.382;8.168;2023-10-31T12:33:11;96040.34;;;10.93;70.97
82305;BME280;71914;47.382;8.168;2023-10-31T12:35:36;96040.19;;;10.94;70.88
82305;BME280;71914;47.382;8.168;2023-10-31T12:38:03;96045.09;;;10.98;70.62
82305;BME280;71914;47.382;8.168;2023-10-31T12:40:29;96047.63;;;11.07;70.61
82305;BME280;71914;47.382;8.168;2023-10-31T12:42:55;96040.59;;;11.16;71.53
82305;BME280;71914;47.382;8.168;2023-10-31T12:45:21;96041.97;;;11.28;72.53
82305;BME280;71914;47.382;8.168;2023-10-31T12:48:00;96050.38;;;11.49;70.55
82305;BME280;71914;47.382;8.168;2023-10-31T12:50:26;96048.13;;;11.54;69.29
82305;BME280;71914;47.382;8.168;2023-10-31T12:52:53;96045.31;;;11.47;69.23
82305;BME280;71914;47.382;8.168;2023-10-31T12:55:21;96041.66;;;11.40;69.57
82305;BME280;71914;47.382;8.168;2023-10-31T12:57:48;96047.41;;;11.35;70.24
82305;BME280;71914;47.382;8.168;2023-10-31T13:00:15;96053.28;;;11.29;70.62
82305;BME280;71914;47.382;8.168;2023-10-31T13:02:44;96068.03;;;11.30;70.61